Time;durP1;ratioP1;P1;durP2;ratioP2;P2;SDS_P1;SDS_P2;PMS_P1;PMS_P2;Temp;Humidity;BMP_temperature;BMP_pressure;BME280_temperature;BME280_humidity;BME280_pressure;Samples;Min_cycle;Max_cycle;Signal;HPM_P1;HPM_P2
2022/11/13 00:02:05;;;;;;;7.70;5.95;;;;;;;11.41;68.37;101172.81;5073562;28;20025;-83
2022/11/13 00:04:30;;;;;;;7.25;5.80;;;;;;;10.74;67.83;101063.59;5072251;28;20028;-83
2022/11/13 00:06:56;;;;;;;8.45;6.53;;;;;;;11.05;68.18;101105.66;5073459;28;20028;-83
2022/11/13 00:09:21;;;;;;;7.60;5.40;;;;;;;11.18;67.95;101130.00;5073200;28;20055;-82
2022/11/13 00:11:46;;;;;;;10.02;6.95;;;;;;;11.31;68.46;101169.34;5073494;28;20025;-83
2022/11/13 00:14:12;;;;;;;8.23;6.00;;;;;;;11.17;68.43;101128.34;5072109;28;20462;-83
2022/11/13 00:16:37;;;;;;;7.97;6.18;;;;;;;10.19;68.55;100959.53;5073364;28;20035;-83
2022/11/13 00:19:03;;;;;;;9.30;7.15;;;;;;;10.83;68.11;101073.31;5073342;28;20024;-83
2022/11/13 00:21:28;;;;;;;11.70;9.45;;;;;;;11.08;68.46;101113.31;5073150;28;20036;-83
2022/11/13 00:23:55;;;;;;;8.38;6.88;;;;;;;10.83;68.06;101072.47;5073067;28;20028;-83
2022/11/13 00:26:29;;;;;;;9.20;5.72;;;;;;;11.07;67.68;101093.97;5071917;28;20051;-83
2022/11/13 00:28:59;;;;;;;6.70;6.00;;;;;;;11.14;68.02;101113.56;5073007;28;20131;-83
2022/11/13 00:31:26;;;;;;;7.10;6.40;;;;;;;11.17;68.34;101124.88;5071837;28;20036;-83
2022/11/13 00:33:52;;;;;;;6.80;6.10;;;;;;;11.44;68.22;101160.13;5073008;28;20024;-83
2022/11/13 00:36:23;;;;;;;6.50;5.88;;;;;;;11.11;68.04;101129.72;5073035;28;20105;-83
2022/11/13 00:38:49;;;;;;;7.82;6.28;;;;;;;11.04;68.31;101096.06;5071753;28;20021;-83
2022/11/13 00:41:15;;;;;;;7.30;6.25;;;;;;;11.17;68.43;101135.44;5073208;28;20025;-83
2022/11/13 00:43:41;;;;;;;7.70;6.90;;;;;;;11.44;68.60;101157.50;5072720;28;20504;-83
2022/11/13 00:46:07;;;;;;;7.20;6.50;;;;;;;11.48;68.52;101173.06;5072849;28;20032;-83
2022/11/13 00:48:33;;;;;;;8.23;6.88;;;;;;;11.46;68.60;101152.88;5072541;28;20039;-83
2022/11/13 00:50:59;;;;;;;16.80;13.13;;;;;;;11.37;68.69;101160.84;5072771;28;20036;-83
2022/11/13 00:53:24;;;;;;;9.57;7.55;;;;;;;10.95;68.15;101073.97;5071577;28;20028;-82
2022/11/13 00:55:50;;;;;;;10.10;8.43;;;;;;;11.40;68.48;101145.53;5071345;28;20024;-83
2022/11/13 00:58:16;;;;;;;10.80;8.02;;;;;;;11.24;68.61;101137.38;5072527;28;20103;-83
2022/11/13 01:00:43;;;;;;;8.32;6.95;;;;;;;10.61;68.86;101023.44;5072480;28;20025;-83
2022/11/13 01:03:09;;;;;;;7.70;6.47;;;;;;;9.88;68.98;100906.94;5072410;28;20054;-83
2022/11/13 01:05:36;;;;;;;8.10;7.20;;;;;;;10.89;68.67;101084.28;5070991;28;20417;-83
2022/11/13 01:08:03;;;;;;;8.85;7.60;;;;;;;10.89;69.12;101093.03;5070829;28;20123;-82
2022/11/13 01:10:28;;;;;;;8.38;7.57;;;;;;;10.60;68.83;101034.16;5072299;28;20646;-83
2022/11/13 01:12:53;;;;;;;8.43;7.07;;;;;;;11.01;68.99;101105.13;5071067;28;20103;-83
2022/11/13 01:15:19;;;;;;;8.30;7.43;;;;;;;11.18;69.30;101126.53;5072244;28;20024;-83
2022/11/13 01:17:44;;;;;;;9.70;7.82;;;;;;;10.85;69.90;101074.97;5070809;28;20024;-83
2022/11/13 01:20:10;;;;;;;10.07;7.60;;;;;;;11.17;69.22;101141.56;5071956;28;20025;-83
2022/11/13 01:22:35;;;;;;;10.35;7.82;;;;;;;10.55;68.77;101037.22;5070584;28;20029;-82
2022/11/13 01:25:01;;;;;;;8.45;7.10;;;;;;;11.02;70.07;101129.75;5071837;28;20036;-83
2022/11/13 01:27:26;;;;;;;11.30;7.63;;;;;;;10.31;69.32;101005.94;5071883;28;20024;-83
2022/11/13 01:29:52;;;;;;;8.90;6.88;;;;;;;10.27;69.62;100999.28;5071851;28;20098;-83
2022/11/13 01:32:17;;;;;;;8.18;7.13;;;;;;;11.17;69.40;101141.56;5071562;28;20043;-83
2022/11/13 01:34:43;;;;;;;8.48;7.05;;;;;;;10.59;69.58;101051.81;5071586;28;20024;-83
2022/11/13 01:37:08;;;;;;;11.27;7.53;;;;;;;10.48;69.38;101034.31;5071938;28;20452;-83
2022/11/13 01:39:33;;;;;;;9.27;7.43;;;;;;;10.55;69.60;101053.06;5071765;28;20099;-83
2022/11/13 01:42:00;;;;;;;8.15;7.30;;;;;;;10.78;69.71;101083.47;5071714;28;20138;-83
2022/11/13 01:44:43;;;;;;;10.30;8.82;;;;;;;10.94;69.56;101113.75;5070200;28;20516;-83
2022/11/13 01:47:09;;;;;;;8.23;7.25;;;;;;;11.08;69.50;101171.47;5071659;28;20024;-83
2022/11/13 01:49:37;;;;;;;8.68;6.82;;;;;;;10.92;69.47;101119.19;5071547;28;20566;-83
2022/11/13 01:52:19;;;;;;;9.73;7.55;;;;;;;10.76;69.62;101085.41;5071451;28;20103;-83
2022/11/13 01:55:04;;;;;;;;;;;;;;;11.09;70.38;101150.16;5071786;28;20024;-83
2022/11/13 01:57:30;;;;;;;7.78;6.45;;;;;;;10.73;69.93;101096.28;5061189;28;19961;-83
2022/11/13 02:00:05;;;;;;;7.88;6.65;;;;;;;11.24;69.45;101155.03;5071550;28;20029;-83
2022/11/13 02:02:30;;;;;;;10.23;8.00;;;;;;;10.99;69.61;101124.75;5071346;28;20479;-83
2022/11/13 02:04:56;;;;;;;9.20;7.30;;;;;;;11.30;69.48;101154.47;5070195;28;20117;-83
2022/11/13 02:07:22;;;;;;;9.13;6.82;;;;;;;10.96;69.51;101112.66;5071000;28;20029;-83
2022/11/13 02:09:50;;;;;;;8.40;7.03;;;;;;;11.15;70.02;101127.66;5071278;28;20078;-83
2022/11/13 02:12:40;;;;;;;9.02;7.47;;;;;;;11.29;69.79;101160.75;5071398;28;20028;-83
2022/11/13 02:15:07;;;;;;;8.57;6.45;;;;;;;11.19;69.89;101130.84;5070925;28;20043;-83
2022/11/13 02:17:41;;;;;;;11.93;7.30;;;;;;;10.97;69.70;101090.53;5071410;28;20078;-83
2022/11/13 02:20:07;;;;;;;14.18;10.23;;;;;;;10.42;69.36;101010.28;5071375;28;20032;-83
2022/11/13 02:23:20;;;;;;;12.55;8.40;;;;;;;11.27;69.93;101152.13;5071475;28;20020;-83
2022/11/13 02:25:49;;;;;;;9.18;6.97;;;;;;;10.90;69.97;101092.06;4990479;28;20037;-83
2022/11/13 02:28:14;;;;;;;8.68;6.90;;;;;;;11.14;70.01;101124.16;4990597;28;20030;-83
2022/11/13 02:30:40;;;;;;;8.70;7.30;;;;;;;11.24;70.05;101144.47;5030594;28;20037;-83
2022/11/13 02:33:20;;;;;;;9.02;7.20;;;;;;;11.17;70.07;101133.63;5096374;28;20032;-83
2022/11/13 02:35:46;;;;;;;10.27;7.88;;;;;;;10.88;69.87;101091.38;5081246;28;20082;-83
2022/11/13 02:38:11;;;;;;;8.60;7.72;;;;;;;11.16;70.04;101142.53;5070198;28;20044;-83
2022/11/13 02:40:37;;;;;;;8.63;7.50;;;;;;;10.98;70.18;101129.19;5071860;28;20028;-83
2022/11/13 02:43:03;;;;;;;8.90;7.70;;;;;;;10.61;70.00;101064.88;5071044;28;20023;-83
2022/11/13 02:45:29;;;;;;;9.30;8.05;;;;;;;10.57;70.13;101061.69;5071028;28;20404;-82
2022/11/13 02:47:54;;;;;;;12.85;9.55;;;;;;;10.93;70.39;101141.16;5071293;28;20082;-83
2022/11/13 02:50:20;;;;;;;10.32;7.32;;;;;;;10.22;70.38;101005.94;5071068;28;20104;-83
2022/11/13 02:52:45;;;;;;;10.65;8.18;;;;;;;10.46;70.46;101067.09;5070926;28;20519;-83
2022/11/13 02:55:11;;;;;;;9.95;7.53;;;;;;;10.72;70.29;101093.78;5070877;28;20025;-83
2022/11/13 02:57:36;;;;;;;9.70;8.70;;;;;;;10.65;70.46;101080.28;5070997;28;20032;-83
2022/11/13 03:00:04;;;;;;;9.88;8.60;;;;;;;10.66;70.38;101066.09;5070841;28;20020;-83
2022/11/13 03:02:29;;;;;;;9.15;7.88;;;;;;;10.39;70.30;101044.84;5070917;28;20048;-83
2022/11/13 03:04:54;;;;;;;12.45;7.85;;;;;;;10.37;70.43;101033.59;5070744;28;20458;-83
2022/11/13 03:07:20;;;;;;;9.90;7.97;;;;;;;10.56;70.49;101073.22;5069578;28;20516;-83
2022/11/13 03:09:45;;;;;;;9.77;8.57;;;;;;;10.39;70.41;101036.94;5074362;28;20024;-83
2022/11/13 03:12:13;;;;;;;10.07;9.07;;;;;;;10.89;70.58;101118.63;5074672;28;20090;-83
2022/11/13 03:14:38;;;;;;;10.50;8.18;;;;;;;10.86;70.38;101114.47;5074537;28;20020;-82
2022/11/13 03:17:04;;;;;;;10.57;8.77;;;;;;;9.41;70.81;100876.91;5074545;28;20020;-83
2022/11/13 03:19:29;;;;;;;27.40;18.15;;;;;;;10.58;70.62;101071.25;5074577;28;20016;-83
2022/11/13 03:21:54;;;;;;;34.20;20.95;;;;;;;10.98;70.49;101138.94;5074404;28;20021;-83
2022/11/13 03:24:20;;;;;;;26.55;18.00;;;;;;;10.54;70.86;101066.41;5073079;28;20035;-83
2022/11/13 03:26:45;;;;;;;19.33;13.00;;;;;;;10.28;70.47;101027.34;5073016;28;20063;-83
2022/11/13 03:29:11;;;;;;;14.68;10.43;;;;;;;10.70;70.72;101107.13;5074171;28;20028;-83
2022/11/13 03:31:36;;;;;;;16.02;11.38;;;;;;;10.35;70.50;101090.97;5074616;28;20032;-83
2022/11/13 03:34:02;;;;;;;14.10;11.30;;;;;;;10.50;70.76;101056.13;5074568;28;20096;-83
2022/11/13 03:36:27;;;;;;;12.90;9.32;;;;;;;10.12;70.95;100992.72;5074108;28;20409;-83
2022/11/13 03:38:53;;;;;;;12.15;10.45;;;;;;;10.81;70.76;101111.41;5074277;28;20493;-82
2022/11/13 03:41:20;;;;;;;11.50;10.27;;;;;;;10.97;71.10;101138.09;5072900;28;20020;-83
2022/11/13 03:43:45;;;;;;;12.80;10.93;;;;;;;10.25;70.59;101024.16;5074029;28;20027;-82
2022/11/13 03:46:10;;;;;;;12.05;10.70;;;;;;;10.77;70.59;101115.31;5074063;28;20017;-82
2022/11/13 03:48:36;;;;;;;14.20;11.82;;;;;;;10.09;70.88;100982.47;5072467;28;20059;-82
2022/11/13 03:51:01;;;;;;;27.10;18.73;;;;;;;10.60;71.08;101094.91;5073789;28;20031;-83
2022/11/13 03:53:27;;;;;;;18.40;13.65;;;;;;;10.59;71.00;101083.50;5073864;28;20107;-83
2022/11/13 03:55:52;;;;;;;15.57;12.50;;;;;;;10.19;70.92;101026.34;5072564;28;20024;-83
2022/11/13 03:58:18;;;;;;;15.63;12.65;;;;;;;10.57;70.68;101077.53;5073899;28;20031;-83
2022/11/13 04:00:44;;;;;;;13.10;11.52;;;;;;;10.99;70.83;101149.34;5073819;28;20078;-82
2022/11/13 04:03:10;;;;;;;12.65;10.68;;;;;;;10.72;70.44;101093.78;5072332;28;20461;-83
2022/11/13 04:05:35;;;;;;;12.45;10.63;;;;;;;10.71;71.00;101095.56;5073736;28;20062;-83
2022/11/13 04:08:01;;;;;;;13.30;10.68;;;;;;;10.92;70.94;101140.31;5073397;28;20044;-83
2022/11/13 04:10:26;;;;;;;12.27;10.93;;;;;;;10.80;71.50;101142.28;5073498;28;20028;-83
2022/11/13 04:12:51;;;;;;;13.52;10.43;;;;;;;10.55;70.75;101084.75;5073295;28;20052;-83
2022/11/13 04:15:17;;;;;;;13.43;11.20;;;;;;;10.45;71.04;101092.69;5071996;28;20051;-83
2022/11/13 04:17:43;;;;;;;13.32;11.55;;;;;;;10.23;70.99;101024.28;5073338;28;20030;-83
2022/11/13 04:20:08;;;;;;;14.48;12.13;;;;;;;10.09;70.86;101000.94;5071505;28;20397;-83
2022/11/13 04:22:34;;;;;;;26.42;18.08;;;;;;;10.32;70.64;101030.53;5072025;28;20031;-83
2022/11/13 04:24:59;;;;;;;15.10;12.57;;;;;;;10.50;70.95;101053.47;5073217;28;20024;-83
2022/11/13 04:27:25;;;;;;;12.85;10.45;;;;;;;11.02;70.74;101140.31;5071918;28;20031;-83
2022/11/13 04:29:50;;;;;;;13.85;10.57;;;;;;;10.91;70.96;101125.44;5073135;28;20393;-83
2022/11/13 04:32:15;;;;;;;13.80;10.55;;;;;;;10.67;70.59;101082.78;5073032;28;20514;-83
2022/11/13 04:34:41;;;;;;;13.77;11.48;;;;;;;10.67;70.80;101083.63;5073018;28;20043;-83
2022/11/13 04:37:06;;;;;;;15.50;12.45;;;;;;;10.76;70.92;101106.56;5073028;28;20028;-83
2022/11/13 04:39:32;;;;;;;14.77;11.55;;;;;;;10.71;70.77;101103.50;5073001;28;20507;-83
2022/11/13 04:44:41;;;;;;;13.52;10.43;;;;;;;10.63;70.86;101100.72;5073277;28;20097;-83
2022/11/13 04:47:07;;;;;;;15.57;11.25;;;;;;;11.02;70.91;101145.59;5072745;28;20017;-83
2022/11/13 04:49:32;;;;;;;12.52;10.63;;;;;;;10.68;70.83;101106.44;5071356;28;20492;-83
2022/11/13 04:51:58;;;;;;;11.20;10.02;;;;;;;10.52;70.60;101079.75;5072558;28;20588;-83
2022/11/13 04:54:23;;;;;;;14.82;11.25;;;;;;;10.82;70.59;101098.06;5071461;28;20035;-83
2022/11/13 04:56:48;;;;;;;12.82;9.85;;;;;;;10.95;71.00;101128.63;5072516;28;20021;-83
2022/11/13 04:59:14;;;;;;;14.85;11.90;;;;;;;10.44;71.18;101035.56;5072494;28;20020;-83
2022/11/13 05:01:39;;;;;;;15.90;13.63;;;;;;;10.25;70.56;101000.41;5072539;28;20024;-83
2022/11/13 05:04:05;;;;;;;14.80;11.73;;;;;;;10.14;70.89;100982.88;5071084;28;20042;-83
2022/11/13 05:06:30;;;;;;;14.50;11.70;;;;;;;10.35;71.19;101025.81;5072195;28;20024;-83
2022/11/13 05:08:56;;;;;;;12.13;10.20;;;;;;;10.83;71.28;101098.91;5072012;28;20131;-83
2022/11/13 05:11:21;;;;;;;13.30;11.15;;;;;;;9.53;70.74;100896.91;5070924;28;20034;-83
2022/11/13 05:13:47;;;;;;;14.85;12.13;;;;;;;10.37;71.06;101033.59;5072207;28;20012;-83
2022/11/13 05:16:13;;;;;;;16.90;13.85;;;;;;;10.85;70.75;101109.31;5072317;28;20476;-83
2022/11/13 05:18:39;;;;;;;18.00;14.93;;;;;;;10.28;70.45;101026.50;5072119;28;20048;-83
2022/11/13 05:21:06;;;;;;;17.52;14.52;;;;;;;10.31;70.90;101015.66;5070781;28;20082;-82
2022/11/13 05:23:33;;;;;;;20.98;18.00;;;;;;;10.73;71.36;101113.94;5072462;28;20481;-83
2022/11/13 05:26:10;;;;;;;22.88;20.33;;;;;;;11.04;70.95;101148.94;5072096;28;20099;-83
2022/11/13 05:28:36;;;;;;;34.33;26.13;;;;;;;11.03;71.14;101149.91;5072412;28;20048;-83
2022/11/13 05:31:07;;;;;;;42.50;30.83;;;;;;;10.75;70.74;101111.97;5071219;28;20038;-83
2022/11/13 05:33:33;;;;;;;25.85;20.10;;;;;;;10.56;71.30;101096.16;5071843;28;20032;-83
2022/11/13 05:36:11;;;;;;;24.80;20.70;;;;;;;10.77;70.93;101104.75;5071904;28;20038;-83
2022/11/13 05:38:37;;;;;;;23.88;18.98;;;;;;;10.91;71.42;101129.91;5071875;28;20433;-83
2022/11/13 05:41:12;;;;;;;20.52;16.30;;;;;;;11.07;71.07;101152.13;5072751;28;20067;-83
2022/11/13 05:43:39;;;;;;;22.30;18.13;;;;;;;10.85;70.91;101125.19;5072947;28;20020;-83
2022/11/13 05:46:07;;;;;;;24.38;18.80;;;;;;;10.26;71.05;101028.47;5071764;28;20409;-83
2022/11/13 05:48:33;;;;;;;22.80;19.67;;;;;;;11.20;70.62;101162.44;5071670;28;20021;-83
2022/11/13 05:51:08;;;;;;;21.73;19.02;;;;;;;10.89;70.89;101118.63;5071572;28;20405;-83
2022/11/13 05:53:35;;;;;;;23.35;19.02;;;;;;;10.74;70.50;101091.81;5071653;28;20024;-83
2022/11/13 05:56:15;;;;;;;22.23;18.15;;;;;;;11.28;71.08;101170.47;5071479;28;20025;-83
2022/11/13 05:58:41;;;;;;;21.90;19.48;;;;;;;11.27;71.40;101176.75;5071336;28;20021;-83
2022/11/13 06:01:12;;;;;;;36.47;27.05;;;;;;;11.30;70.83;101179.09;5071402;28;20504;-83
2022/11/13 06:03:38;;;;;;;27.00;20.50;;;;;;;10.83;70.78;101104.19;5071625;28;20334;-83
2022/11/13 06:06:10;;;;;;;25.55;20.55;;;;;;;11.02;70.50;101135.84;5070215;28;20038;-83
2022/11/13 06:08:36;;;;;;;22.13;16.50;;;;;;;11.34;70.46;101192.88;5071137;28;20052;-83
2022/11/13 06:11:08;;;;;;;17.23;14.52;;;;;;;11.37;71.07;101180.19;5069925;28;20082;-83
2022/11/13 06:13:34;;;;;;;18.60;14.50;;;;;;;11.14;71.18;101128.59;5070063;28;20021;-83
2022/11/13 06:16:05;;;;;;;18.80;16.38;;;;;;;10.94;71.17;101096.09;5071276;28;20401;-83
2022/11/13 06:18:30;;;;;;;17.42;14.40;;;;;;;10.71;70.85;101069.16;5071259;28;20024;-83
2022/11/13 06:21:08;;;;;;;17.10;13.25;;;;;;;11.07;70.91;101120.41;5071183;28;20058;-83
2022/11/13 06:23:36;;;;;;;17.23;14.30;;;;;;;11.49;70.20;101188.78;5070000;28;20025;-84
2022/11/13 06:26:06;;;;;;;18.38;14.55;;;;;;;11.50;70.84;101184.34;5071472;28;20511;-83
2022/11/13 06:28:32;;;;;;;19.42;16.42;;;;;;;11.12;70.69;101128.75;5071288;28;20103;-83
2022/11/13 06:31:22;;;;;;;32.08;23.10;;;;;;;11.54;70.96;101183.91;5071332;28;20552;-83
2022/11/13 06:33:48;;;;;;;28.95;20.83;;;;;;;11.48;70.74;101168.63;5061032;28;20471;-83
2022/11/13 06:36:16;;;;;;;24.00;18.55;;;;;;;11.17;70.29;101090.50;5070993;28;20029;-83
2022/11/13 06:38:42;;;;;;;17.70;15.80;;;;;;;11.70;70.43;101193.88;5071044;28;20032;-83
2022/11/13 06:41:10;;;;;;;16.45;13.15;;;;;;;11.24;70.72;101110.94;5069886;28;20394;-83
2022/11/13 06:43:35;;;;;;;16.00;13.05;;;;;;;11.41;70.47;101149.84;5073757;28;20119;-83
2022/11/13 06:46:06;;;;;;;13.65;11.57;;;;;;;11.09;70.32;101093.84;5073757;28;20095;-83
2022/11/13 06:48:33;;;;;;;15.68;13.20;;;;;;;11.74;70.22;101187.31;5075171;28;20029;-83
2022/11/13 06:51:06;;;;;;;15.75;12.32;;;;;;;11.71;70.88;101171.72;5073652;28;20119;-83
2022/11/13 06:53:32;;;;;;;13.20;11.55;;;;;;;11.84;70.26;101184.66;5075112;28;20016;-83
2022/11/13 06:55:58;;;;;;;16.58;13.73;;;;;;;11.88;70.51;101192.16;5074975;28;20070;-83
2022/11/13 06:58:24;;;;;;;12.93;10.85;;;;;;;11.32;70.06;101094.34;5073526;28;20027;-83
2022/11/13 07:00:50;;;;;;;12.85;10.63;;;;;;;11.88;70.26;101196.63;5074810;28;20016;-83
2022/11/13 07:03:23;;;;;;;12.95;11.55;;;;;;;12.05;69.76;101182.63;5073300;28;20732;-83
2022/11/13 07:05:49;;;;;;;20.33;15.57;;;;;;;11.68;69.73;101100.59;5074497;28;20035;-83
2022/11/13 07:08:15;;;;;;;15.90;12.48;;;;;;;11.91;69.48;101138.13;5073090;28;20049;-83
2022/11/13 07:10:41;;;;;;;15.20;12.77;;;;;;;11.78;69.39;101098.75;5074477;28;20025;-83
2022/11/13 07:13:07;;;;;;;14.50;10.38;;;;;;;11.63;69.04;101077.22;5074410;28;20025;-83
2022/11/13 07:15:38;;;;;;;14.68;10.80;;;;;;;12.31;69.24;101175.66;5074375;28;20024;-83
2022/11/13 07:18:05;;;;;;;10.82;8.98;;;;;;;12.19;69.49;101150.38;5074201;28;20107;-82
2022/11/13 07:20:31;;;;;;;12.07;9.23;;;;;;;12.46;68.69;101175.13;5074180;28;20012;-82
2022/11/13 07:22:58;;;;;;;9.98;8.90;;;;;;;11.98;69.03;101087.09;5074192;28;20075;-83
2022/11/13 07:25:25;;;;;;;10.82;9.25;;;;;;;12.32;68.75;101128.81;5074209;28;20485;-82
2022/11/13 07:27:50;;;;;;;9.10;7.75;;;;;;;12.39;68.54;101140.47;5072907;28;20526;-83
2022/11/13 07:30:16;;;;;;;11.00;8.15;;;;;;;12.54;68.49;101148.72;5072967;28;20143;-82
2022/11/13 07:32:42;;;;;;;10.13;8.13;;;;;;;12.32;68.62;101097.84;5072959;28;20420;-82
2022/11/13 07:35:08;;;;;;;9.43;8.02;;;;;;;12.58;68.59;101142.13;5072992;28;20024;-83
2022/11/13 07:37:33;;;;;;;11.55;8.25;;;;;;;12.24;68.38;101087.19;5072936;28;20021;-82
2022/11/13 07:39:59;;;;;;;13.80;8.90;;;;;;;12.26;68.30;101076.44;5074156;28;20511;-82
2022/11/13 07:42:25;;;;;;;9.30;8.30;;;;;;;12.12;67.67;101040.75;5074374;28;20042;-82
2022/11/13 07:44:50;;;;;;;10.55;8.95;;;;;;;12.20;68.02;101050.56;5072647;28;20024;-82
2022/11/13 07:47:16;;;;;;;11.35;8.30;;;;;;;12.87;67.85;101155.16;5072672;28;20425;-82
2022/11/13 07:49:41;;;;;;;10.13;8.38;;;;;;;12.43;67.57;101066.81;5072597;28;20469;-82
2022/11/13 07:52:07;;;;;;;12.45;9.20;;;;;;;12.27;67.47;101027.78;5073787;28;20020;-82
2022/11/13 07:54:32;;;;;;;15.73;10.57;;;;;;;12.30;67.03;101032.78;5072868;28;20029;-83
2022/11/13 07:56:58;;;;;;;11.20;10.05;;;;;;;12.85;67.41;101112.06;5072429;28;20471;-82
2022/11/13 07:59:23;;;;;;;12.43;10.32;;;;;;;13.12;67.24;101154.34;5073556;28;20028;-82
2022/11/13 08:01:49;;;;;;;13.73;10.50;;;;;;;13.10;66.91;101137.78;5073590;28;20039;-82
2022/11/13 08:04:14;;;;;;;11.73;9.60;;;;;;;13.04;66.91;101127.78;5073904;28;20020;-82
2022/11/13 08:06:39;;;;;;;12.32;10.05;;;;;;;12.93;66.82;101099.72;5073680;28;20024;-81
2022/11/13 08:09:05;;;;;;;18.83;11.80;;;;;;;12.66;66.48;101050.31;5073367;28;20041;-82
2022/11/13 08:11:30;;;;;;;16.35;11.82;;;;;;;12.57;66.68;101039.78;5073880;28;20412;-82
2022/11/13 08:13:56;;;;;;;13.75;9.75;;;;;;;13.18;66.70;101147.63;5094755;28;20082;-83
2022/11/13 08:16:22;;;;;;;15.40;11.27;;;;;;;13.30;66.61;101163.13;5085001;28;20513;-82
2022/11/13 08:18:48;;;;;;;13.55;11.82;;;;;;;13.00;66.45;101113.19;5072211;28;20020;-82
2022/11/13 08:21:14;;;;;;;11.82;10.57;;;;;;;13.29;66.44;101153.50;5072440;28;20101;-82
2022/11/13 08:23:41;;;;;;;14.25;11.55;;;;;;;13.07;66.46;101108.09;5073484;28;20497;-83
2022/11/13 08:26:08;;;;;;;11.75;10.52;;;;;;;13.18;66.43;101124.59;5073645;28;20047;-82
2022/11/13 08:28:34;;;;;;;14.85;9.80;;;;;;;13.07;66.14;101092.16;5073197;28;20031;-82
2022/11/13 08:31:00;;;;;;;13.50;12.10;;;;;;;12.77;66.49;101030.69;5073011;28;20031;-82
2022/11/13 08:33:25;;;;;;;14.45;11.90;;;;;;;13.27;66.23;101112.22;5073087;28;20095;-82
2022/11/13 08:35:55;;;;;;;19.95;16.90;;;;;;;12.67;66.17;101014.88;5073068;28;20043;-82
2022/11/13 08:38:21;;;;;;;19.15;15.48;;;;;;;13.51;66.06;101140.72;5071698;28;20100;-83
2022/11/13 08:40:47;;;;;;;18.95;16.98;;;;;;;13.10;65.99;101084.75;5073047;28;20021;-81
2022/11/13 08:43:13;;;;;;;21.42;18.08;;;;;;;13.39;66.00;101124.25;5071636;28;20471;-82
2022/11/13 08:45:38;;;;;;;19.10;17.15;;;;;;;12.31;66.03;100944.41;5071490;28;20016;-81
2022/11/13 08:48:04;;;;;;;19.15;17.17;;;;;;;13.58;66.21;101139.94;5072768;28;20562;-81
2022/11/13 08:50:32;;;;;;;18.83;15.88;;;;;;;13.66;66.16;101152.41;5072633;28;20103;-81
2022/11/13 08:52:58;;;;;;;22.30;20.05;;;;;;;13.64;65.56;101119.88;5072593;28;20082;-81
2022/11/13 08:55:24;;;;;;;22.73;19.92;;;;;;;13.72;65.38;101124.41;5071204;28;20043;-81
2022/11/13 08:57:50;;;;;;;25.92;21.27;;;;;;;13.68;65.14;101127.38;5071299;28;20017;-81
2022/11/13 09:00:16;;;;;;;22.23;19.85;;;;;;;13.76;65.12;101120.44;5072630;28;20090;-81
2022/11/13 09:02:42;;;;;;;23.60;21.10;;;;;;;12.90;64.95;100945.44;5072519;28;20020;-82
2022/11/13 09:05:07;;;;;;;23.55;21.10;;;;;;;13.60;64.77;101073.44;5072303;28;20047;-82
2022/11/13 09:07:33;;;;;;;24.40;22.00;;;;;;;13.31;64.50;101002.97;5072287;28;20048;-82
2022/11/13 09:09:58;;;;;;;26.05;23.40;;;;;;;13.91;64.88;101089.63;5072368;28;20043;-81
2022/11/13 09:12:24;;;;;;;28.17;24.75;;;;;;;13.78;64.34;101052.91;5072185;28;20024;-81
2022/11/13 09:14:49;;;;;;;25.75;22.98;;;;;;;13.76;64.17;101072.66;5072108;28;20027;-82
2022/11/13 09:17:15;;;;;;;25.13;22.30;;;;;;;14.00;64.06;101086.81;5072112;28;20020;-81
2022/11/13 09:19:40;;;;;;;24.67;22.05;;;;;;;13.78;63.72;101013.09;5072199;28;20024;-81
2022/11/13 09:22:06;;;;;;;20.23;18.27;;;;;;;14.58;63.56;101114.34;5072429;28;20020;-81
2022/11/13 09:24:31;;;;;;;22.30;20.10;;;;;;;13.62;63.07;100958.16;5072021;28;20021;-81
2022/11/13 09:26:57;;;;;;;24.05;21.67;;;;;;;14.53;62.70;101080.31;5072195;28;20032;-81
2022/11/13 09:29:22;;;;;;;23.60;21.30;;;;;;;14.32;61.96;101038.25;5072109;28;20021;-81
2022/11/13 09:31:49;;;;;;;20.88;18.80;;;;;;;14.79;62.18;101112.03;5071890;28;20456;-81
2022/11/13 09:34:15;;;;;;;20.58;18.58;;;;;;;14.79;62.11;101111.19;5070694;28;20424;-81
2022/11/13 09:36:40;;;;;;;18.42;16.50;;;;;;;14.47;62.05;101080.97;5070600;28;20028;-82
2022/11/13 09:39:06;;;;;;;16.27;14.60;;;;;;;14.65;62.47;101104.72;5071844;28;20100;-81
2022/11/13 09:41:41;;;;;;;16.27;14.52;;;;;;;14.54;62.78;101103.22;5071779;28;20090;-81
2022/11/13 09:44:17;;;;;;;18.30;16.40;;;;;;;14.44;63.26;101097.25;5071582;28;20084;-83
2022/11/13 09:46:58;;;;;;;17.48;15.65;;;;;;;13.91;63.52;101024.06;5070382;28;20112;-82
2022/11/13 09:49:29;;;;;;;21.65;17.65;;;;;;;14.25;63.82;101087.72;5071310;28;20099;-81
2022/11/13 09:52:03;;;;;;;25.65;22.67;;;;;;;13.64;63.84;100998.63;5071319;28;20028;-82
2022/11/13 09:54:28;;;;;;;23.42;21.08;;;;;;;13.10;64.06;100915.03;5058560;28;20128;-82
2022/11/13 09:57:02;;;;;;;25.42;22.80;;;;;;;14.16;64.20;101083.41;5051413;28;20109;-82
2022/11/13 09:59:35;;;;;;;29.83;26.70;;;;;;;13.80;63.97;101042.97;5050267;28;20024;-82
2022/11/13 10:02:06;;;;;;;29.30;26.30;;;;;;;14.08;63.83;101083.34;5051381;28;20048;-82
2022/11/13 10:04:43;;;;;;;33.92;29.80;;;;;;;14.05;63.89;101074.88;5051505;28;20029;-82
2022/11/13 10:07:31;;;;;;;35.42;31.70;;;;;;;13.55;64.12;101014.69;5051437;28;20083;-82
2022/11/13 10:10:18;;;;;;;34.97;31.20;;;;;;;14.02;64.16;101083.19;5051330;28;20055;-82
2022/11/13 10:12:48;;;;;;;46.50;40.65;;;;;;;14.09;64.06;101081.53;5050043;28;20029;-82
2022/11/13 10:15:15;;;;;;;56.17;46.10;;;;;;;13.75;63.89;101009.94;5051374;28;20511;-82
2022/11/13 10:17:59;;;;;;;56.00;46.83;;;;;;;14.21;63.69;101074.94;5050789;28;20143;-82
2022/11/13 10:20:34;;;;;;;55.72;45.95;;;;;;;14.29;63.85;101061.66;5051234;28;20417;-82
2022/11/13 10:23:07;;;;;;;57.28;47.60;;;;;;;14.46;63.84;101066.03;5051108;28;20062;-81
2022/11/13 10:25:36;;;;;;;60.40;48.53;;;;;;;14.50;63.10;101043.44;5049809;28;20076;-82
2022/11/13 10:28:28;;;;;;;53.90;46.45;;;;;;;14.86;62.71;101064.31;5066532;28;20425;-82
2022/11/13 10:31:37;;;;;;;58.47;44.88;;;;;;;14.98;62.17;101059.50;5049062;28;20419;-81
2022/11/13 10:34:02;;;;;;;48.92;36.13;;;;;;;14.67;62.48;101004.38;5051285;28;20025;-82
2022/11/13 10:37:18;;;;;;;50.97;36.58;;;;;;;14.93;62.16;101050.22;5051162;28;20044;-81
2022/11/13 10:39:44;;;;;;;49.58;36.90;;;;;;;14.28;62.34;100970.50;5006332;28;20448;-81
2022/11/13 10:42:27;;;;;;;52.60;39.83;;;;;;;14.73;61.97;101056.88;5050995;28;20104;-82
2022/11/13 10:44:58;;;;;;;55.47;41.70;;;;;;;14.59;62.81;101057.53;5051022;28;20025;-82
2022/11/13 10:47:30;;;;;;;51.00;37.35;;;;;;;14.36;62.63;101021.97;5051124;28;20052;-81
2022/11/13 10:49:55;;;;;;;50.00;39.45;;;;;;;14.15;62.84;100990.59;5050703;28;20037;-82
2022/11/13 10:52:27;;;;;;;48.25;35.58;;;;;;;14.18;63.05;101000.88;5050737;28;20029;-82
2022/11/13 10:55:17;;;;;;;46.13;34.08;;;;;;;14.35;63.10;101017.66;5050699;28;20512;-82
2022/11/13 10:57:52;;;;;;;44.83;30.38;;;;;;;13.99;63.20;100975.44;5051109;28;20103;-82
2022/11/13 11:00:19;;;;;;;46.60;34.65;;;;;;;14.43;62.80;101026.50;5050941;28;20383;-82
2022/11/13 11:02:49;;;;;;;39.92;31.88;;;;;;;14.44;62.86;101025.50;5050838;28;20033;-82
2022/11/13 11:05:18;;;;;;;40.08;30.08;;;;;;;14.45;62.84;101013.03;5049563;28;20021;-82
2022/11/13 11:07:44;;;;;;;42.38;32.45;;;;;;;14.44;62.82;101014.88;5049649;28;20052;-82
2022/11/13 11:10:35;;;;;;;41.03;30.80;;;;;;;14.30;62.95;100983.63;5050819;28;20025;-81
2022/11/13 11:13:21;;;;;;;47.25;35.75;;;;;;;14.45;62.42;101005.88;5066210;28;20037;-82
2022/11/13 11:15:58;;;;;;;42.50;33.55;;;;;;;14.44;62.82;101000.75;5050850;28;20025;-82
2022/11/13 11:18:38;;;;;;;43.53;35.08;;;;;;;14.50;62.26;101002.72;5066165;28;20029;-81
2022/11/13 11:21:20;;;;;;;41.25;31.95;;;;;;;14.22;62.26;100949.09;5050754;28;20063;-81
2022/11/13 11:24:13;;;;;;;45.83;32.65;;;;;;;14.62;62.22;100988.09;5050902;28;20084;-81